Weather History for Crookston, MN

Change the Weather History Date:

Tuesday, January 8, 2013

  Actual Average Record
Temperature  
Mean Temperature 20 °F -  
Max Temperature 32 °F 12 °F 42 °F (2002)
Min Temperature 8 °F 0 °F -29 °F (2014)
Degree Days  
Heating Degree Days 45    
Moisture  
Dew Point 20 °F    
Average Humidity 91    
Maximum Humidity 100    
Minimum Humidity 75    
Precipitation  
Precipitation 0.01 in - - ()
Sea Level Pressure  
Sea Level Pressure 29.73 in    
Wind  
Wind Speed 12 mph (SSW)    
Max Wind Speed 25 mph    
Max Gust Speed 30 mph    
Visibility 9 miles    
Events Snow    
Averages and records for this station are not official NWS values.
T = Trace of Precipitation, MM = Missing Value Source: NWS Daily Summary

Daily Weather History Graph

Daily Weather History Graph

Search for Another Location

Airport:

Trip Planner

Search our weather history database for the weather conditions in past years. The results will help you decide how hot, cold, wet, or windy it might be!

Date:

Astronomy

Jan. 08, 2013 Rise Set
Actual Time 8:14 AM CST 4:52 PM CST
Civil Twilight 7:38 AM CST 5:28 PM CST
Nautical Twilight 6:59 AM CST 6:07 PM CST
Astronomical Twilight 6:22 AM CST 6:44 PM CST
Moon 4:47 AM CST (1/8) 1:56 PM CST (1/8)
Length of Visible Light 9h 49m
Length of Day
8h 38m
Waning Crescent, 13% of the Moon is Illuminated
Jan 8
Waning Crescent
Jan 11
New
Jan 18
First Quarter
Jan 26
Full
Feb 3
Last Quarter

Hourly Weather History & Observations

Time (CST) Temp. Windchill Dew Point Humidity Pressure Visibility Wind Dir Wind Speed Gust Speed Precip Events Conditions
12:15 AM 10.4 °F -0.4 °F 6.8 °F 85% 29.86 in 10.0 mi South 6.9 mph - N/A   Clear
12:55 AM 8.6 °F -2.6 °F 6.8 °F 92% 29.86 in 10.0 mi SSE 6.9 mph - N/A   Clear
1:15 AM 10.4 °F -0.4 °F 6.8 °F 85% 29.86 in 10.0 mi SSE 6.9 mph - N/A   Clear
1:34 AM 8.6 °F -5.5 °F 6.8 °F 92% 29.86 in 10.0 mi SSE 10.4 mph - N/A   Clear
1:55 AM 12.2 °F -1.0 °F 10.4 °F 92% 29.85 in 10.0 mi South 10.4 mph - N/A   Clear
2:14 AM 12.2 °F 1.7 °F 10.4 °F 92% 29.85 in 10.0 mi South 6.9 mph - N/A   Clear
2:34 AM 12.2 °F -0.2 °F 10.4 °F 92% 29.85 in 10.0 mi South 9.2 mph - N/A   Clear
2:55 AM 10.4 °F -2.4 °F 10.4 °F 100% 29.85 in 10.0 mi South 9.2 mph - N/A   Clear
3:14 AM 10.4 °F -2.4 °F 10.4 °F 100% 29.85 in 10.0 mi South 9.2 mph - N/A   Clear
3:34 AM 10.4 °F -2.4 °F 8.6 °F 92% 29.84 in 10.0 mi SSE 9.2 mph - N/A   Clear
3:55 AM 12.2 °F 0.7 °F 10.4 °F 92% 29.84 in 10.0 mi South 8.1 mph - N/A   Clear
4:14 AM 10.4 °F -0.4 °F 10.4 °F 100% 29.84 in 10.0 mi South 6.9 mph - N/A   Clear
4:34 AM 10.4 °F -2.4 °F 8.6 °F 92% 29.83 in 10.0 mi South 9.2 mph - N/A   Clear
4:55 AM 12.2 °F -1.0 °F 10.4 °F 92% 29.83 in 10.0 mi South 10.4 mph - N/A   Clear
5:14 AM 10.4 °F -3.3 °F 10.4 °F 100% 29.82 in 10.0 mi SSE 10.4 mph - N/A   Clear
5:34 AM 12.2 °F -1.0 °F 10.4 °F 92% 29.81 in 10.0 mi South 10.4 mph - N/A   Clear
5:55 AM 15.8 °F 2.1 °F 14.0 °F 93% 29.81 in 10.0 mi South 12.7 mph - N/A   Clear
6:14 AM 15.8 °F 2.7 °F 12.2 °F 86% 29.80 in 10.0 mi SSE 11.5 mph - N/A   Clear
6:35 AM 14.0 °F 2.0 °F 12.2 °F 93% 29.80 in 10.0 mi SSE 9.2 mph - N/A   Clear
6:55 AM 14.0 °F 2.0 °F 12.2 °F 93% 29.78 in 10.0 mi SSE 9.2 mph - N/A   Clear
7:14 AM 15.8 °F 2.1 °F 12.2 °F 86% 29.78 in 10.0 mi SSE 12.7 mph - N/A   Clear
7:35 AM 15.8 °F 3.4 °F 12.2 °F 86% 29.78 in 10.0 mi SSE 10.4 mph - N/A   Clear
7:55 AM 15.8 °F 3.4 °F 14.0 °F 93% 29.77 in 10.0 mi SSE 10.4 mph - N/A   Scattered Clouds
8:14 AM 17.6 °F 6.4 °F 15.8 °F 93% 29.77 in 10.0 mi SSE 9.2 mph - N/A   Mostly Cloudy
8:35 AM 21.2 °F 8.3 °F 17.6 °F 86% 29.77 in 10.0 mi South 13.8 mph - N/A   Mostly Cloudy
8:55 AM 23.0 °F 9.6 °F 19.4 °F 86% 29.77 in 10.0 mi South 16.1 mph - N/A   Mostly Cloudy
9:14 AM 23.0 °F 10.1 °F 19.4 °F 86% 29.76 in 10.0 mi South 15.0 mph - N/A   Mostly Cloudy
9:35 AM 24.8 °F 12.4 °F 19.4 °F 80% 29.76 in 10.0 mi South 15.0 mph - N/A   Scattered Clouds
9:55 AM 26.6 °F 14.3 °F 21.2 °F 80% 29.77 in 10.0 mi South 16.1 mph - N/A   Clear
10:14 AM 26.6 °F 13.4 °F 21.2 °F 80% 29.77 in 10.0 mi South 18.4 mph 23.0 mph N/A   Clear
10:35 AM 26.6 °F 13.4 °F 24.8 °F 93% 29.77 in 2.0 mi South 18.4 mph 23.0 mph N/A Snow Light Snow
10:55 AM 26.6 °F 13.1 °F 24.8 °F 93% 29.76 in 1.2 mi South 19.6 mph - N/A Snow Light Snow
11:14 AM 26.6 °F 12.7 °F 26.6 °F 100% 29.74 in 0.8 mi South 20.7 mph - N/A Snow Light Snow
11:35 AM 28.4 °F 16.2 °F 26.6 °F 93% 29.71 in 7.0 mi South 17.3 mph - N/A Snow Light Snow
11:55 AM 30.2 °F 18.9 °F 28.4 °F 93% 29.69 in 10.0 mi SSE 16.1 mph - N/A   Clear
12:14 PM 30.2 °F 18.9 °F 28.4 °F 93% 29.69 in 10.0 mi South 16.1 mph 21.9 mph N/A   Clear
12:35 PM 32.0 °F 19.5 °F 28.4 °F 87% 29.68 in 10.0 mi South 21.9 mph 29.9 mph N/A   Scattered Clouds
12:55 PM 32.0 °F 18.6 °F 28.4 °F 87% 29.66 in 1.5 mi South 25.3 mph 28.8 mph N/A Snow Light Snow
1:14 PM 30.2 °F 17.4 °F 28.4 °F 93% 29.65 in 0.5 mi South 20.7 mph - N/A Snow Snow
1:54 PM 30.2 °F 19.8 °F 30.2 °F 100% 29.63 in 1.0 mi South 13.8 mph - N/A Snow Light Snow
2:15 PM 32.0 °F 21.6 °F 30.2 °F 93% 29.63 in 1.0 mi South 15.0 mph - N/A Snow Light Snow
2:35 PM 32.0 °F 21.2 °F 32.0 °F 100% 29.63 in 2.0 mi SSW 16.1 mph - 0.01 in Snow Light Snow
2:54 PM 32.0 °F 20.5 °F 30.2 °F 93% 29.63 in 2.0 mi SSW 18.4 mph 24.2 mph N/A Snow Light Snow
3:15 PM 32.0 °F 20.5 °F 30.2 °F 93% 29.64 in 0.5 mi SW 18.4 mph 23.0 mph N/A Snow Snow
3:35 PM 30.2 °F 18.5 °F 30.2 °F 100% 29.64 in 1.8 mi SW 17.3 mph - N/A Snow Light Snow
3:54 PM 30.2 °F 18.9 °F 30.2 °F 100% 29.64 in 10.0 mi SSW 16.1 mph - N/A   Overcast
4:15 PM 30.2 °F 18.9 °F 28.4 °F 93% 29.64 in 10.0 mi SSW 16.1 mph - N/A   Overcast
4:35 PM 30.2 °F 18.9 °F 28.4 °F 93% 29.64 in 10.0 mi SW 16.1 mph - N/A   Overcast
4:54 PM 30.2 °F 18.9 °F 28.4 °F 93% 29.64 in 10.0 mi SW 16.1 mph - N/A   Overcast
5:15 PM 30.2 °F 19.3 °F 28.4 °F 93% 29.64 in 10.0 mi SW 15.0 mph - N/A   Overcast
5:35 PM 28.4 °F 18.0 °F 24.8 °F 86% 29.64 in 10.0 mi SSW 12.7 mph - N/A   Scattered Clouds
5:54 PM 26.6 °F 15.2 °F 24.8 °F 93% 29.65 in 10.0 mi SSW 13.8 mph - N/A   Clear
6:15 PM 26.6 °F 15.7 °F 24.8 °F 93% 29.65 in 10.0 mi SSW 12.7 mph - N/A   Mostly Cloudy
6:35 PM 26.6 °F 16.2 °F 24.8 °F 93% 29.65 in 10.0 mi SSW 11.5 mph - N/A   Scattered Clouds
6:54 PM 24.8 °F 14.0 °F 21.2 °F 86% 29.66 in 10.0 mi SSW 11.5 mph - N/A   Clear
7:15 PM 23.0 °F 13.1 °F 21.2 °F 93% 29.67 in 10.0 mi SSW 9.2 mph - N/A   Clear
7:54 PM 19.4 °F 7.9 °F 19.4 °F 100% 29.68 in 10.0 mi SSW 10.4 mph - N/A   Clear
8:15 PM 21.2 °F 9.5 °F 21.2 °F 100% 29.68 in 10.0 mi SSW 11.5 mph - N/A   Clear
8:34 PM 21.2 °F 10.1 °F 19.4 °F 93% 29.68 in 10.0 mi SW 10.4 mph - N/A   Clear
8:55 PM 24.8 °F 14.0 °F 21.2 °F 86% 29.68 in 10.0 mi WSW 11.5 mph - N/A   Clear
9:15 PM 28.4 °F 18.0 °F 23.0 °F 80% 29.68 in 10.0 mi WSW 12.7 mph - N/A   Clear
9:34 PM 28.4 °F 19.1 °F 23.0 °F 80% 29.67 in 10.0 mi WSW 10.4 mph - N/A   Scattered Clouds
9:55 PM 23.0 °F 11.7 °F 19.4 °F 86% 29.68 in 10.0 mi SW 11.5 mph - N/A   Scattered Clouds
10:15 PM 23.0 °F 13.1 °F 19.4 °F 86% 29.67 in 10.0 mi WSW 9.2 mph - N/A   Clear
10:34 PM 24.8 °F 16.1 °F 19.4 °F 80% 29.68 in 10.0 mi WSW 8.1 mph - N/A   Scattered Clouds
10:55 PM 30.2 °F 21.3 °F 23.0 °F 75% 29.68 in 10.0 mi WSW 10.4 mph 18.4 mph N/A   Overcast
11:15 PM 30.2 °F 18.1 °F 26.6 °F 86% 29.68 in 10.0 mi West 18.4 mph - N/A   Overcast
11:34 PM 30.2 °F 18.9 °F 26.6 °F 86% 29.69 in 10.0 mi West 16.1 mph 21.9 mph N/A   Overcast
11:55 PM 30.2 °F 16.2 °F 26.6 °F 86% 29.69 in 10.0 mi WNW 25.3 mph 29.9 mph N/A   Overcast